Time;durP1;ratioP1;P1;durP2;ratioP2;P2;SDS_P1;SDS_P2;PMS_P1;PMS_P2;Temp;Humidity;BMP_temperature;BMP_pressure;BME280_temperature;BME280_humidity;BME280_pressure;Samples;Min_cycle;Max_cycle;Signal;HPM_P1;HPM_P2
2023/11/19 00:02:01;;;;;;;3.70;2.85;;;;;;;4.01;85.47;98238.25;1224860;75;2931136;-62
2023/11/19 00:04:35;;;;;;;3.25;2.55;;;;;;;4.05;86.50;98228.13;1224972;75;2932055;-59
2023/11/19 00:07:07;;;;;;;3.20;2.55;;;;;;;4.07;85.31;98211.47;1224956;75;2914951;-64
2023/11/19 00:09:43;;;;;;;3.80;2.80;;;;;;;4.08;85.51;98204.84;1224363;75;2916878;-59
2023/11/19 00:12:16;;;;;;;4.70;3.25;;;;;;;4.13;86.15;98214.44;1225209;75;2917230;-62
2023/11/19 00:14:48;;;;;;;5.30;4.00;;;;;;;4.07;86.37;98211.47;1225064;75;2918855;-62
2023/11/19 00:17:21;;;;;;;5.60;4.15;;;;;;;4.04;86.86;98204.94;1224927;75;2917406;-61
2023/11/19 00:19:54;;;;;;;6.15;4.10;;;;;;;4.03;88.98;98211.50;1225079;75;2944752;-63
2023/11/19 00:22:26;;;;;;;5.15;4.15;;;;;;;4.01;89.39;98213.13;1224801;75;2916962;-62
2023/11/19 00:25:02;;;;;;;5.70;4.00;;;;;;;4.09;88.20;98202.91;1224854;75;2926470;-63
2023/11/19 00:27:34;;;;;;;5.60;4.05;;;;;;;4.11;88.47;98214.09;1225398;75;2927147;-62
2023/11/19 00:30:09;;;;;;;4.75;3.65;;;;;;;4.04;90.47;98199.50;1224300;75;2918424;-62
2023/11/19 00:32:41;;;;;;;5.65;4.25;;;;;;;3.96;91.92;98208.94;1224537;75;2913894;-62
2023/11/19 00:35:14;;;;;;;7.15;4.90;;;;;;;3.88;93.36;98195.97;1225475;75;2924146;-62
2023/11/19 00:37:48;;;;;;;5.85;4.65;;;;;;;3.88;93.05;98194.03;1225133;75;2913435;-64
2023/11/19 00:40:24;;;;;;;5.10;3.90;;;;;;;3.80;93.76;98185.28;1224943;75;2918789;-64
2023/11/19 00:42:56;;;;;;;5.55;4.20;;;;;;;3.73;92.68;98182.72;1224556;75;2916630;-65
2023/11/19 00:45:29;;;;;;;4.00;3.60;;;;;;;3.70;93.36;98186.22;1224637;75;2913729;-63
2023/11/19 00:48:02;;;;;;;5.85;4.30;;;;;;;3.33;94.03;98207.03;1226138;75;2913582;-64
2023/11/19 00:50:34;;;;;;;4.75;3.80;;;;;;;3.86;89.92;98201.03;1224931;75;2921309;-63
2023/11/19 00:53:07;;;;;;;4.55;3.60;;;;;;;4.04;87.29;98182.47;1224707;75;2915505;-61
2023/11/19 00:55:42;;;;;;;4.10;3.30;;;;;;;4.11;86.12;98174.19;1225233;75;2912720;-64
2023/11/19 00:58:15;;;;;;;3.25;2.80;;;;;;;4.10;85.45;98159.13;1225523;75;2913304;-61
2023/11/19 01:00:47;;;;;;;3.65;2.80;;;;;;;3.94;86.10;98164.50;1224398;75;2916367;-62
2023/11/19 01:03:20;;;;;;;3.90;2.90;;;;;;;3.95;85.29;98168.75;1224863;75;2967341;-63
2023/11/19 01:05:53;;;;;;;5.10;4.55;;;;;;;3.93;81.83;98160.28;1226566;75;2916838;-61
2023/11/19 01:08:26;;;;;;;4.75;3.75;;;;;;;3.95;82.07;98164.09;1225304;75;2912897;-62
2023/11/19 01:11:01;;;;;;;4.50;3.60;;;;;;;4.19;80.88;98162.03;1225383;75;2940265;-63
2023/11/19 01:13:34;;;;;;;3.30;2.55;;;;;;;4.22;80.79;98174.00;1225806;75;2918310;-63
2023/11/19 01:16:09;;;;;;;3.00;2.70;;;;;;;4.22;81.03;98182.88;1225446;75;2919742;-63
2023/11/19 01:18:42;;;;;;;3.80;3.30;;;;;;;4.17;82.36;98177.94;1225760;75;2913820;-61
2023/11/19 01:21:16;;;;;;;11.40;7.85;;;;;;;3.84;82.26;98183.25;1226214;75;2920558;-64
2023/11/19 01:23:48;;;;;;;11.95;9.10;;;;;;;3.88;83.67;98161.53;1225322;75;2915767;-62
2023/11/19 01:26:24;;;;;;;8.95;6.65;;;;;;;4.27;81.34;98144.44;1224951;75;2924567;-63
2023/11/19 01:28:56;;;;;;;7.20;5.70;;;;;;;4.27;81.42;98155.28;1225609;75;2913719;-63
2023/11/19 01:31:29;;;;;;;4.70;4.00;;;;;;;4.38;80.86;98146.16;1224018;75;2915494;-64
2023/11/19 01:34:02;;;;;;;5.05;4.10;;;;;;;4.33;81.66;98136.59;1226545;75;2840052;-65
2023/11/19 01:36:34;;;;;;;3.70;3.05;;;;;;;4.27;81.94;98144.44;1225190;75;2916361;-65
2023/11/19 01:39:07;;;;;;;4.15;3.30;;;;;;;4.30;81.00;98121.16;1224613;75;2950772;-62
2023/11/19 01:41:42;;;;;;;4.45;3.75;;;;;;;4.17;81.42;98120.28;1224727;75;2921713;-60
2023/11/19 01:44:15;;;;;;;4.45;3.25;;;;;;;4.22;81.38;98117.84;1224964;75;2919555;-63
2023/11/19 01:46:50;;;;;;;3.40;3.10;;;;;;;4.19;81.76;98105.13;1223914;75;2923435;-62
2023/11/19 01:49:24;;;;;;;4.55;3.40;;;;;;;4.18;81.31;98098.19;1224824;75;2909282;-65
2023/11/19 01:51:56;;;;;;;4.05;3.25;;;;;;;4.18;81.56;98103.59;1224364;75;2927127;-63
2023/11/19 01:54:30;;;;;;;4.35;3.55;;;;;;;4.16;81.84;98092.44;1223602;75;2922304;-62
2023/11/19 01:57:06;;;;;;;3.80;3.30;;;;;;;4.19;81.73;98088.13;1224800;75;2918508;-62
2023/11/19 01:59:38;;;;;;;4.60;3.80;;;;;;;4.19;81.54;98088.13;1223759;75;2914941;-61
2023/11/19 02:02:12;;;;;;;5.45;3.55;;;;;;;4.15;82.61;98087.44;1223863;75;2919147;-64
2023/11/19 02:04:46;;;;;;;4.15;3.70;;;;;;;4.06;83.64;98085.28;1225492;75;2916636;-64
2023/11/19 02:07:20;;;;;;;4.45;4.00;;;;;;;4.03;84.98;98072.59;1224332;75;2920833;-61
2023/11/19 02:09:52;;;;;;;4.45;3.45;;;;;;;4.18;83.77;98067.63;1225204;75;2919396;-61
2023/11/19 02:12:28;;;;;;;4.80;4.20;;;;;;;4.02;85.85;98068.38;1225067;75;2912624;-64
2023/11/19 02:15:02;;;;;;;5.20;4.55;;;;;;;3.72;87.72;98059.31;1225183;75;2912132;-63
2023/11/19 02:17:37;;;;;;;4.95;4.10;;;;;;;3.98;86.77;98056.84;1225902;75;2916477;-65
2023/11/19 02:20:12;;;;;;;4.60;3.45;;;;;;;3.92;87.04;98045.75;1225280;75;2920336;-63
2023/11/19 02:22:45;;;;;;;5.85;4.15;;;;;;;3.94;86.92;98043.38;1226264;75;2916252;-62
2023/11/19 02:25:28;;;;;;;4.55;3.35;;;;;;;3.88;88.35;98047.03;1224278;75;2914588;-62
2023/11/19 02:28:06;;;;;;;4.40;3.95;;;;;;;3.86;88.84;98038.56;1225440;75;2914939;-65
2023/11/19 02:30:39;;;;;;;4.70;3.90;;;;;;;3.76;89.81;98040.31;1225140;75;2913219;-65
2023/11/19 02:33:12;;;;;;;4.50;3.90;;;;;;;3.89;89.92;98035.75;1224943;75;2917570;-63
2023/11/19 02:35:45;;;;;;;3.80;3.30;;;;;;;3.83;89.40;98030.06;1225725;75;2911145;-62
2023/11/19 02:38:18;;;;;;;4.75;3.65;;;;;;;3.72;91.58;98026.84;1224407;75;2917056;-65
2023/11/19 02:40:51;;;;;;;4.50;4.05;;;;;;;3.71;92.27;98030.75;1224845;75;2923896;-61
2023/11/19 02:43:27;;;;;;;4.15;3.75;;;;;;;3.82;91.82;98033.19;1225557;75;2916487;-60
2023/11/19 02:46:00;;;;;;;5.25;4.45;;;;;;;3.57;94.61;98036.47;1224745;75;2925442;-63
2023/11/19 02:48:35;;;;;;;4.95;4.15;;;;;;;3.53;96.38;98027.63;1224939;75;2922714;-65
2023/11/19 02:51:09;;;;;;;4.50;4.00;;;;;;;3.66;95.61;98019.66;1223611;75;2924537;-63
2023/11/19 02:53:44;;;;;;;4.65;4.05;;;;;;;3.71;95.23;98017.19;1226149;75;2911777;-62
2023/11/19 02:56:24;;;;;;;5.10;3.50;;;;;;;3.68;94.74;98001.03;1224958;75;2917688;-63
2023/11/19 02:59:03;;;;;;;4.30;3.85;;;;;;;3.64;96.76;97993.00;1225238;75;2922658;-62
2023/11/19 03:01:35;;;;;;;3.90;3.50;;;;;;;3.65;97.09;97996.44;1226378;75;2913486;-62
2023/11/19 03:04:11;;;;;;;4.00;3.55;;;;;;;3.71;97.22;97983.94;1224436;75;2920451;-62
2023/11/19 03:06:44;;;;;;;4.60;4.00;;;;;;;3.65;97.47;97982.91;1226073;75;2927023;-62
2023/11/19 03:09:17;;;;;;;4.15;3.70;;;;;;;3.76;96.23;97980.75;1225200;75;2914084;-64
2023/11/19 03:11:49;;;;;;;4.20;3.45;;;;;;;3.73;95.91;97987.75;1223990;75;2919362;-61
2023/11/19 03:14:25;;;;;;;4.45;3.15;;;;;;;3.79;96.52;97983.34;1224786;75;2912579;-62
2023/11/19 03:16:58;;;;;;;3.70;3.30;;;;;;;3.82;95.82;97976.31;1223760;75;2922831;-62
2023/11/19 03:19:31;;;;;;;4.55;3.90;;;;;;;3.74;96.80;97977.69;1223847;75;2917323;-63
2023/11/19 03:22:04;;;;;;;3.35;2.95;;;;;;;3.81;95.88;97978.28;1225105;75;2922774;-62
2023/11/19 03:24:37;;;;;;;3.90;3.50;;;;;;;3.72;96.90;97978.09;1224400;75;2923424;-62
2023/11/19 03:27:10;;;;;;;4.25;3.35;;;;;;;3.83;96.39;97970.50;1224701;75;2916639;-62
2023/11/19 03:29:45;;;;;;;4.10;3.20;;;;;;;3.95;95.09;97962.91;1224796;75;2915142;-64
2023/11/19 03:32:18;;;;;;;3.15;2.85;;;;;;;3.91;95.08;97960.25;1223502;75;2912799;-63
2023/11/19 03:34:50;;;;;;;3.30;2.85;;;;;;;3.91;94.93;97946.72;1224324;75;2926124;-61
2023/11/19 03:37:23;;;;;;;4.00;2.90;;;;;;;3.89;94.58;97946.38;1224928;75;2917057;-63
2023/11/19 03:39:59;;;;;;;2.90;2.60;;;;;;;3.89;94.81;97943.66;1226325;75;2921474;-62
2023/11/19 03:42:32;;;;;;;2.70;2.45;;;;;;;3.92;95.04;97940.13;1225959;75;2924877;-62
2023/11/19 03:45:09;;;;;;;3.95;2.60;;;;;;;3.89;95.09;97937.50;1226000;75;2920941;-64
2023/11/19 03:47:41;;;;;;;2.75;2.50;;;;;;;3.95;94.99;97925.72;1223012;75;2918642;-60
2023/11/19 03:50:15;;;;;;;2.55;2.35;;;;;;;3.98;94.67;97916.75;1215529;75;3615718;-63
2023/11/19 03:52:48;;;;;;;3.75;3.20;;;;;;;3.86;96.11;97912.03;1224445;75;2917913;-63
2023/11/19 03:55:21;;;;;;;3.35;2.60;;;;;;;3.94;95.79;97924.19;1223150;75;2920349;-63
2023/11/19 03:57:53;;;;;;;2.65;2.35;;;;;;;4.00;94.98;97919.03;1224828;75;2917892;-62
2023/11/19 04:00:28;;;;;;;2.60;2.40;;;;;;;3.95;96.56;97917.59;1226095;75;2924787;-61
2023/11/19 04:03:02;;;;;;;2.45;2.25;;;;;;;4.01;97.56;97918.59;1225098;75;2918388;-61
2023/11/19 04:05:34;;;;;;;3.10;2.80;;;;;;;4.00;96.34;97916.34;1224983;75;2923961;-65
2023/11/19 04:08:08;;;;;;;3.05;2.30;;;;;;;4.09;95.74;97911.09;1225584;75;2919345;-62
2023/11/19 04:10:40;;;;;;;3.30;2.45;;;;;;;3.86;98.97;97913.97;1224512;75;2920222;-63
2023/11/19 04:13:13;;;;;;;2.95;2.60;;;;;;;4.06;96.98;97903.78;1224923;75;2914402;-62
2023/11/19 04:15:49;;;;;;;2.85;2.45;;;;;;;4.10;95.71;97890.16;1225482;75;2914622;-62
2023/11/19 04:18:21;;;;;;;2.85;2.35;;;;;;;4.12;94.67;97880.41;1223522;75;2917875;-62
2023/11/19 04:20:54;;;;;;;2.25;2.00;;;;;;;4.20;95.10;97878.28;1225313;75;2922464;-60
2023/11/19 04:23:27;;;;;;;2.50;2.20;;;;;;;4.17;95.67;97884.56;1224099;75;2923377;-62
2023/11/19 04:26:00;;;;;;;2.65;2.20;;;;;;;4.09;96.62;97894.81;1224294;75;2918794;-64
2023/11/19 04:28:33;;;;;;;2.35;2.15;;;;;;;3.92;98.51;97893.31;1223947;75;2919935;-64
2023/11/19 04:31:09;;;;;;;3.20;2.90;;;;;;;3.98;98.19;97883.50;1224663;75;2925990;-61
2023/11/19 04:33:41;;;;;;;5.30;4.50;;;;;;;3.58;100.00;97881.75;1225469;75;2925327;-63
2023/11/19 04:36:16;;;;;;;4.35;3.95;;;;;;;3.70;100.00;97871.41;1224137;75;2945628;-63
2023/11/19 04:38:49;;;;;;;4.75;4.25;;;;;;;3.63;100.00;97885.88;1224141;75;2920442;-63
2023/11/19 04:41:21;;;;;;;5.20;4.40;;;;;;;3.66;100.00;97885.03;1224303;75;2918266;-62
2023/11/19 04:43:54;;;;;;;4.80;4.30;;;;;;;3.67;100.00;97883.84;1225235;75;2923429;-61
2023/11/19 04:46:29;;;;;;;5.20;3.95;;;;;;;3.93;96.45;97886.72;1225189;75;2918535;-64
2023/11/19 04:49:02;;;;;;;3.20;2.90;;;;;;;3.83;97.76;97875.72;1225303;75;2919715;-60
2023/11/19 04:51:41;;;;;;;2.95;2.65;;;;;;;3.97;95.78;97871.91;1225405;75;2925430;-65
2023/11/19 04:54:14;;;;;;;3.40;2.90;;;;;;;4.04;95.15;97881.78;1225224;75;2945913;-64
2023/11/19 04:56:49;;;;;;;2.50;2.30;;;;;;;3.89;96.78;97872.50;1225006;75;2915914;-66
2023/11/19 04:59:22;;;;;;;2.30;1.90;;;;;;;3.98;95.67;97872.66;1225578;75;2912792;-64
2023/11/19 05:01:57;;;;;;;2.85;2.15;;;;;;;3.87;97.10;97872.16;1225410;75;2919623;-65
2023/11/19 05:04:30;;;;;;;2.00;1.80;;;;;;;3.77;97.28;97868.53;1225273;75;2917965;-66
2023/11/19 05:07:03;;;;;;;2.55;2.20;;;;;;;3.67;98.48;97867.59;1225247;75;2924735;-65
2023/11/19 05:09:36;;;;;;;2.55;2.15;;;;;;;3.64;98.31;97852.22;1225230;75;2919749;-63
2023/11/19 05:12:12;;;;;;;2.10;1.90;;;;;;;3.59;100.00;97847.31;1224215;75;2917795;-65
2023/11/19 05:14:49;;;;;;;2.70;2.00;;;;;;;3.55;97.90;97855.50;1225584;75;2923135;-62
2023/11/19 05:17:24;;;;;;;2.00;1.70;;;;;;;3.56;98.10;97848.16;1226107;75;2913262;-61
2023/11/19 05:19:57;;;;;;;1.95;1.75;;;;;;;3.49;100.00;97840.19;1225834;75;2920325;-63
2023/11/19 05:22:32;;;;;;;2.15;1.95;;;;;;;3.48;100.00;97828.59;1224699;75;2909349;-62
2023/11/19 05:25:05;;;;;;;2.40;2.10;;;;;;;3.43;100.00;97829.13;1225579;75;2916896;-64
2023/11/19 05:27:38;;;;;;;2.30;2.05;;;;;;;3.41;100.00;97824.13;1224511;75;2923224;-64
2023/11/19 05:30:12;;;;;;;2.05;1.85;;;;;;;3.41;100.00;97817.97;1225539;75;2915536;-64
2023/11/19 05:32:48;;;;;;;2.45;2.25;;;;;;;3.29;100.00;97819.38;1225630;75;2923896;-62
2023/11/19 05:35:20;;;;;;;2.30;2.10;;;;;;;3.31;100.00;97818.97;1223804;75;2916759;-63
2023/11/19 05:37:53;;;;;;;2.90;2.45;;;;;;;3.28;100.00;97815.19;1223996;75;2916711;-65
2023/11/19 05:40:26;;;;;;;2.85;2.55;;;;;;;3.34;100.00;97828.94;1225022;75;2915892;-63
2023/11/19 05:42:58;;;;;;;2.60;2.40;;;;;;;3.35;100.00;97822.38;1224512;75;2918218;-65
2023/11/19 05:45:31;;;;;;;2.75;2.30;;;;;;;3.30;100.00;97825.59;1225020;75;2922706;-63
2023/11/19 05:48:06;;;;;;;3.35;2.60;;;;;;;3.33;100.00;97832.84;1225238;67;2931115;-62
2023/11/19 05:50:39;;;;;;;2.75;2.30;;;;;;;3.38;100.00;97843.91;1224959;75;2922370;-63
2023/11/19 05:53:14;;;;;;;3.60;3.05;;;;;;;3.09;100.00;97840.34;1226165;75;2911190;-62
2023/11/19 05:55:54;;;;;;;3.80;3.40;;;;;;;2.98;100.00;97816.25;1224437;75;2919623;-64
2023/11/19 05:58:30;;;;;;;3.90;3.50;;;;;;;3.11;100.00;97800.13;1224842;75;2918193;-62
2023/11/19 06:01:03;;;;;;;4.50;3.80;;;;;;;3.26;100.00;97808.66;1225909;75;2914238;-63
2023/11/19 06:03:39;;;;;;;3.50;3.20;;;;;;;3.36;100.00;97810.34;1225195;75;2913860;-64
2023/11/19 06:06:12;;;;;;;3.50;3.10;;;;;;;3.16;100.00;97811.19;1225106;75;2908319;-64
2023/11/19 06:08:44;;;;;;;4.85;3.60;;;;;;;3.08;100.00;97798.25;1225746;75;2911942;-65
2023/11/19 06:11:18;;;;;;;4.40;4.00;;;;;;;3.07;100.00;97794.78;1225108;75;2915229;-63
2023/11/19 06:13:51;;;;;;;5.00;3.90;;;;;;;3.04;100.00;97792.19;1224497;75;2920134;-65
2023/11/19 06:16:23;;;;;;;3.40;3.10;;;;;;;3.35;100.00;97792.59;1225085;75;2925125;-64
2023/11/19 06:18:59;;;;;;;3.50;3.20;;;;;;;3.20;100.00;97781.38;1225975;75;2912142;-64
2023/11/19 06:21:31;;;;;;;4.30;3.80;;;;;;;3.32;100.00;97780.69;1225168;75;2911485;-64
2023/11/19 06:24:04;;;;;;;3.45;3.10;;;;;;;3.50;100.00;97784.91;1225574;75;2917208;-63
2023/11/19 06:26:36;;;;;;;3.20;2.90;;;;;;;3.47;100.00;97799.28;1224908;75;2926228;-60
2023/11/19 06:29:09;;;;;;;3.15;2.85;;;;;;;3.39;100.00;97791.34;1223882;75;2924376;-64
2023/11/19 06:31:45;;;;;;;3.30;3.00;;;;;;;3.60;100.00;97800.09;1225452;75;2911039;-64
2023/11/19 06:34:20;;;;;;;2.75;2.45;;;;;;;3.76;100.00;97802.03;1224975;75;2923044;-64
2023/11/19 06:36:53;;;;;;;3.15;2.60;;;;;;;3.74;100.00;97791.63;1198296;75;5030004;-65
2023/11/19 06:39:26;;;;;;;2.65;2.40;;;;;;;3.82;100.00;97779.44;1225404;75;2920965;-63
2023/11/19 06:41:59;;;;;;;2.90;2.50;;;;;;;3.90;100.00;97774.59;1224908;75;2924396;-64
2023/11/19 06:44:31;;;;;;;2.30;2.10;;;;;;;3.89;100.00;97783.88;1225881;75;2915928;-61
2023/11/19 06:47:04;;;;;;;2.90;2.60;;;;;;;3.95;100.00;97779.47;1223269;75;2938498;-66
2023/11/19 06:49:39;;;;;;;3.05;2.30;;;;;;;4.05;100.00;97774.97;1224408;67;2919501;-64
2023/11/19 06:52:12;;;;;;;2.80;2.55;;;;;;;4.14;100.00;97774.34;1224361;75;2922510;-63
2023/11/19 06:54:45;;;;;;;3.90;3.25;;;;;;;4.19;100.00;97771.84;1224093;75;2920942;-65
2023/11/19 06:57:18;;;;;;;7.25;5.80;;;;;;;4.32;100.00;97765.72;1222207;75;2917545;-64
2023/11/19 06:59:50;;;;;;;6.00;5.10;;;;;;;4.36;100.00;97769.84;1224585;75;2917911;-65
2023/11/19 07:02:23;;;;;;;5.70;4.65;;;;;;;4.40;100.00;97780.56;1220152;75;3176736;-62
2023/11/19 07:04:58;;;;;;;4.25;3.55;;;;;;;4.56;98.40;97783.19;1225439;75;2917879;-64
2023/11/19 07:07:31;;;;;;;3.85;3.45;;;;;;;4.59;97.58;97795.88;1224003;75;2923483;-65
2023/11/19 07:10:04;;;;;;;3.35;3.00;;;;;;;4.46;98.88;97786.97;1224514;75;2920235;-65
2023/11/19 07:12:37;;;;;;;4.20;3.65;;;;;;;4.05;100.00;97797.38;1224854;75;2925980;-67
2023/11/19 07:15:12;;;;;;;4.90;4.40;;;;;;;3.98;100.00;97804.94;1224624;75;2918147;-63
2023/11/19 07:17:45;;;;;;;6.75;5.40;;;;;;;4.11;100.00;97804.97;1223433;75;2912010;-63
2023/11/19 07:20:20;;;;;;;9.20;8.30;;;;;;;4.07;100.00;97805.09;1222529;75;2925979;-61
2023/11/19 07:22:53;;;;;;;12.00;10.75;;;;;;;4.27;100.00;97800.25;1224563;75;2915046;-62
2023/11/19 07:25:26;;;;;;;8.00;7.15;;;;;;;4.15;96.26;97800.22;1225380;75;2922270;-64
2023/11/19 07:27:59;;;;;;;7.40;6.20;;;;;;;4.65;93.84;97794.16;1224212;75;2921839;-62
2023/11/19 07:30:31;;;;;;;6.50;5.60;;;;;;;4.44;95.11;97784.69;1225785;75;2920364;-65
2023/11/19 07:33:04;;;;;;;5.45;4.85;;;;;;;4.51;93.16;97780.28;1224656;75;2954379;-65
2023/11/19 07:35:41;;;;;;;6.45;5.50;;;;;;;4.14;94.78;97764.25;1224231;75;2916980;-63
2023/11/19 07:38:13;;;;;;;6.95;6.25;;;;;;;3.85;96.75;97745.31;1224077;75;2924676;-65
2023/11/19 07:40:47;;;;;;;6.45;5.80;;;;;;;3.91;100.00;97726.59;1223466;75;2919060;-63
2023/11/19 07:43:20;;;;;;;7.80;6.80;;;;;;;3.63;100.00;97696.38;1224038;75;2928746;-64
2023/11/19 07:45:52;;;;;;;8.45;6.55;;;;;;;3.62;100.00;97695.63;1224243;75;2928560;-66
2023/11/19 07:48:25;;;;;;;9.85;8.30;;;;;;;3.82;99.51;97735.31;1224308;75;2923393;-63
2023/11/19 07:51:01;;;;;;;7.10;6.40;;;;;;;4.06;95.05;97760.22;1224438;75;2928343;-62
2023/11/19 07:53:33;;;;;;;7.05;6.35;;;;;;;3.84;97.73;97760.03;1225558;75;2933947;-64
2023/11/19 07:56:07;;;;;;;11.90;9.70;;;;;;;4.15;96.30;97765.00;1224651;75;2924919;-65
2023/11/19 07:58:40;;;;;;;14.15;11.50;;;;;;;4.05;98.05;97777.66;1224540;75;2906587;-62
2023/11/19 08:01:13;;;;;;;12.85;10.30;;;;;;;3.84;100.00;97749.97;1223853;75;2919938;-64
2023/11/19 08:03:46;;;;;;;14.40;11.75;;;;;;;3.41;100.00;97737.53;1225333;75;2923201;-63
2023/11/19 08:06:21;;;;;;;12.80;10.25;;;;;;;3.84;100.00;97771.63;1224758;75;2924613;-63
2023/11/19 08:08:54;;;;;;;10.75;9.65;;;;;;;3.64;100.00;97784.53;1225170;75;2931547;-66
2023/11/19 08:11:26;;;;;;;9.65;8.65;;;;;;;3.74;100.00;97788.91;1225132;75;2930383;-63
2023/11/19 08:13:59;;;;;;;7.30;6.50;;;;;;;3.99;100.00;97780.16;1224544;75;2915092;-62
2023/11/19 08:16:32;;;;;;;6.75;6.05;;;;;;;4.44;96.75;97770.38;1225856;75;2930179;-63
2023/11/19 08:19:04;;;;;;;6.45;5.60;;;;;;;4.39;95.75;97766.25;1224962;75;2923200;-63
2023/11/19 08:21:40;;;;;;;6.75;6.05;;;;;;;4.53;93.71;97764.34;1224896;75;2936151;-64
2023/11/19 08:24:12;;;;;;;6.80;6.00;;;;;;;5.11;90.90;97762.16;1225156;75;2917642;-66
2023/11/19 08:26:45;;;;;;;7.05;5.95;;;;;;;5.13;90.02;97770.63;1225009;75;2918639;-66
2023/11/19 08:29:18;;;;;;;6.40;5.80;;;;;;;5.60;87.71;97765.63;1223541;75;2921107;-64
2023/11/19 08:31:50;;;;;;;7.55;6.60;;;;;;;5.08;87.72;97752.19;1225101;75;2911348;-65
2023/11/19 08:34:23;;;;;;;8.85;7.45;;;;;;;5.49;88.03;97744.28;1224789;75;2922018;-62
2023/11/19 08:36:58;;;;;;;7.45;6.25;;;;;;;5.72;84.65;97730.31;1224007;75;2924722;-62
2023/11/19 08:39:31;;;;;;;8.00;7.20;;;;;;;6.12;82.89;97728.94;1210285;75;3280897;-64
2023/11/19 08:42:03;;;;;;;6.80;6.10;;;;;;;5.87;82.85;97719.69;1221525;75;2929191;-63
2023/11/19 08:44:36;;;;;;;6.75;5.60;;;;;;;7.22;77.76;97715.78;1223799;75;2921034;-63
2023/11/19 08:47:09;;;;;;;9.30;6.80;;;;;;;6.08;79.44;97722.88;1223476;75;2917034;-63
2023/11/19 08:49:42;;;;;;;6.50;5.40;;;;;;;7.53;76.42;97723.09;1224970;75;2914892;-65
2023/11/19 08:52:17;;;;;;;8.55;6.50;;;;;;;7.08;76.52;97719.06;1224757;75;2923974;-63
2023/11/19 08:54:50;;;;;;;9.45;7.45;;;;;;;6.98;75.59;97717.53;1223993;75;2931563;-62
2023/11/19 08:57:22;;;;;;;8.55;6.65;;;;;;;7.34;73.12;97713.38;1224745;67;2915348;-65
2023/11/19 08:59:55;;;;;;;7.65;5.70;;;;;;;7.72;70.84;97715.66;1224503;75;2927355;-64
2023/11/19 09:02:29;;;;;;;9.00;5.45;;;;;;;8.57;67.50;97707.66;1223951;75;2921215;-63
2023/11/19 09:05:01;;;;;;;10.90;8.15;;;;;;;8.91;65.86;97703.69;1224704;75;2922816;-63
2023/11/19 09:07:37;;;;;;;13.35;10.05;;;;;;;9.18;65.60;97704.75;1224647;75;2921101;-63
2023/11/19 09:10:11;;;;;;;8.45;6.65;;;;;;;10.22;63.79;97705.72;1224171;75;2925860;-64
2023/11/19 09:12:44;;;;;;;11.05;5.70;;;;;;;10.15;62.66;97692.44;1224062;75;2932249;-62
2023/11/19 09:15:16;;;;;;;7.00;5.85;;;;;;;10.13;62.07;97700.34;1224215;75;2929268;-62
2023/11/19 09:17:49;;;;;;;6.65;5.15;;;;;;;10.75;61.12;97697.84;1224189;75;2921778;-63
2023/11/19 09:20:22;;;;;;;7.95;5.40;;;;;;;10.76;60.10;97702.88;1225223;75;2923180;-63
2023/11/19 09:22:57;;;;;;;5.25;4.75;;;;;;;9.90;61.59;97710.13;1223427;75;2922443;-65
2023/11/19 09:25:30;;;;;;;6.90;5.30;;;;;;;8.87;65.07;97694.91;1224217;75;2922674;-62
2023/11/19 09:28:02;;;;;;;6.95;5.30;;;;;;;8.68;66.03;97688.81;1225397;75;2918204;-64
2023/11/19 09:30:35;;;;;;;6.95;5.00;;;;;;;9.03;67.05;97682.09;1224448;75;2918489;-63
2023/11/19 09:33:08;;;;;;;6.35;5.05;;;;;;;8.44;67.71;97675.13;1223546;75;2918806;-63
2023/11/19 09:35:40;;;;;;;5.90;5.00;;;;;;;8.36;67.89;97678.59;1223349;75;2925431;-63
2023/11/19 09:38:16;;;;;;;5.30;4.45;;;;;;;8.93;66.90;97686.88;1224065;75;2927601;-63
2023/11/19 09:40:49;;;;;;;6.35;5.20;;;;;;;9.03;67.77;97679.38;1223812;75;2921475;-64
2023/11/19 09:43:22;;;;;;;5.90;5.10;;;;;;;9.17;65.59;97671.22;1225370;75;2920001;-65
2023/11/19 09:45:56;;;;;;;5.85;4.80;;;;;;;9.91;64.17;97669.88;1224856;75;2932253;-63
2023/11/19 09:48:29;;;;;;;6.75;4.65;;;;;;;10.32;61.92;97659.13;1223617;75;2958175;-63
2023/11/19 09:51:04;;;;;;;5.90;4.65;;;;;;;10.59;61.36;97656.06;1224248;75;2925666;-65
2023/11/19 09:53:40;;;;;;;4.95;4.10;;;;;;;11.48;60.92;97620.06;1224601;75;2923588;-62
2023/11/19 09:56:14;;;;;;;5.25;4.25;;;;;;;11.91;59.45;97619.53;1224755;75;2923970;-63
2023/11/19 09:58:47;;;;;;;5.65;4.00;;;;;;;11.38;59.43;97629.69;1224397;75;2930637;-65
2023/11/19 10:01:20;;;;;;;5.85;3.85;;;;;;;12.06;57.53;97642.09;1223691;75;2922712;-67
2023/11/19 10:03:57;;;;;;;5.30;3.90;;;;;;;11.55;58.07;97642.84;1224655;75;2915664;-63
2023/11/19 10:06:30;;;;;;;5.05;3.75;;;;;;;11.40;58.18;97662.88;1223910;75;2913277;-65
2023/11/19 10:09:07;;;;;;;6.25;4.45;;;;;;;10.70;60.14;97644.53;1224584;75;2932322;-65
2023/11/19 10:11:39;;;;;;;4.25;3.30;;;;;;;10.84;59.87;97637.50;1223971;75;2926252;-62
2023/11/19 10:14:12;;;;;;;5.40;3.90;;;;;;;9.80;62.62;97619.22;1224672;75;2924301;-63
2023/11/19 10:16:46;;;;;;;5.25;3.75;;;;;;;9.43;63.84;97612.59;1224533;75;2920788;-67
2023/11/19 10:19:23;;;;;;;5.10;3.80;;;;;;;9.66;63.48;97597.38;1220537;75;3015203;-64
2023/11/19 10:21:56;;;;;;;7.20;3.70;;;;;;;10.51;61.39;97599.47;1225440;75;2913640;-64
2023/11/19 10:24:40;;;;;;;4.25;3.25;;;;;;;12.16;58.49;97579.56;1223439;75;2925367;-65
2023/11/19 10:27:14;;;;;;;5.95;3.80;;;;;;;11.99;58.07;97581.44;1224667;75;2922370;-63
2023/11/19 10:29:49;;;;;;;7.35;5.55;;;;;;;13.13;55.75;97576.81;1224655;75;2928608;-64
2023/11/19 10:32:22;;;;;;;5.85;4.20;;;;;;;14.28;51.77;97566.19;1224956;75;2922250;-63
2023/11/19 10:34:55;;;;;;;4.75;3.50;;;;;;;14.44;51.97;97553.66;1224324;75;2912931;-66
2023/11/19 10:37:37;;;;;;;4.45;3.00;;;;;;;14.67;50.97;97548.84;1223368;75;2918688;-63
2023/11/19 10:40:14;;;;;;;4.75;3.70;;;;;;;14.44;50.12;97553.66;1223531;75;2918057;-63
2023/11/19 10:42:47;;;;;;;6.15;3.50;;;;;;;13.51;52.03;97552.69;1223551;75;2923197;-65
2023/11/19 10:45:26;;;;;;;3.55;2.70;;;;;;;15.52;48.48;97536.13;1223418;75;2919652;-65
2023/11/19 10:48:00;;;;;;;3.75;2.75;;;;;;;15.54;47.36;97536.38;1223163;75;2922474;-63
2023/11/19 10:50:33;;;;;;;3.70;3.10;;;;;;;13.89;49.93;97541.47;1224101;75;2913150;-63
2023/11/19 10:53:06;;;;;;;4.35;3.20;;;;;;;14.78;49.98;97529.53;1223652;75;2922746;-67
2023/11/19 10:55:42;;;;;;;4.55;2.75;;;;;;;15.74;47.50;97538.00;1223110;75;2923337;-65
2023/11/19 10:58:18;;;;;;;4.85;3.45;;;;;;;13.57;50.89;97528.69;1224830;75;2916787;-68
2023/11/19 11:00:57;;;;;;;4.35;3.25;;;;;;;14.01;50.73;97538.19;1223581;75;2924912;-65
2023/11/19 11:03:33;;;;;;;4.15;3.15;;;;;;;15.21;48.76;97526.31;1223128;75;2920095;-65
2023/11/19 11:06:09;;;;;;;4.95;3.90;;;;;;;15.07;48.75;97532.91;1224206;75;2920302;-64
2023/11/19 11:08:42;;;;;;;4.20;3.00;;;;;;;14.82;49.33;97527.25;1223523;75;2925060;-65
2023/11/19 11:11:21;;;;;;;4.40;3.10;;;;;;;15.86;47.84;97519.34;1223829;75;2922571;-66
2023/11/19 11:13:56;;;;;;;5.00;3.65;;;;;;;15.29;49.02;97518.97;1222790;75;2919314;-64
2023/11/19 11:16:32;;;;;;;4.65;3.40;;;;;;;16.32;47.45;97512.13;1222481;75;2924982;-64
2023/11/19 11:19:04;;;;;;;5.10;3.30;;;;;;;17.04;44.70;97511.81;1224572;75;2928265;-63
2023/11/19 11:21:39;;;;;;;4.65;3.65;;;;;;;16.65;45.51;97521.31;1221238;75;3028760;-63
2023/11/19 11:24:57;;;;;;;18.80;13.65;;;;;;;16.03;46.40;97533.00;1223745;83;2915460;-64
2023/11/19 11:28:09;;;;;;;7.65;5.25;;;;;;;16.21;45.51;97522.53;1224508;75;2919333;-65
2023/11/19 11:31:08;;;;;;;5.75;3.70;;;;;;;16.21;46.15;97501.22;1224910;75;2915020;-65
2023/11/19 11:34:13;;;;;;;4.85;3.20;;;;;;;17.19;44.87;97505.84;1223811;75;2928563;-66
2023/11/19 11:37:00;;;;;;;6.50;3.55;;;;;;;16.99;44.20;97488.50;1224837;75;2933839;-63
2023/11/19 11:39:34;;;;;;;3.60;2.70;;;;;;;17.42;43.89;97486.91;1224270;75;2916422;-66
2023/11/19 11:42:38;;;;;;;5.15;3.10;;;;;;;16.37;45.41;97480.94;1224648;75;2919960;-64
2023/11/19 11:45:13;;;;;;;4.10;3.00;;;;;;;18.81;42.27;97475.88;1223770;75;2938233;-64
2023/11/19 11:48:31;;;;;;;6.50;2.80;;;;;;;19.32;41.51;97458.88;1223997;75;2926930;-65
2023/11/19 11:51:04;;;;;;;3.60;2.15;;;;;;;22.07;37.44;97458.59;1224844;75;2917152;-65
2023/11/19 11:53:39;;;;;;;2.90;1.80;;;;;;;22.88;35.94;97455.25;1224773;75;2920721;-67
2023/11/19 11:56:13;;;;;;;3.65;2.40;;;;;;;23.04;35.77;97442.72;1224707;75;2925334;-66